Time;durP1;ratioP1;P1;durP2;ratioP2;P2;SDS_P1;SDS_P2;PMS_P1;PMS_P2;Temp;Humidity;BMP_temperature;BMP_pressure;BME280_temperature;BME280_humidity;BME280_pressure;Samples;Min_cycle;Max_cycle;Signal;HPM_P1;HPM_P2
2022/10/15 00:01:40;;;;;;;25.30;20.67;;;;;;;12.10;100.00;100962.91;5102255;28;20182;-86
2022/10/15 00:04:06;;;;;;;35.97;22.30;;;;;;;11.18;100.00;100829.22;5087436;28;20186;-83
2022/10/15 00:06:34;;;;;;;32.30;22.40;;;;;;;10.99;100.00;100788.72;5085104;28;20474;-84
2022/10/15 00:09:00;;;;;;;26.80;21.37;;;;;;;11.79;100.00;100893.56;5083161;28;20289;-85
2022/10/15 00:11:27;;;;;;;30.00;21.77;;;;;;;11.07;100.00;100809.97;5086131;28;20589;-86
2022/10/15 00:13:55;;;;;;;29.10;22.40;;;;;;;9.80;100.00;100579.97;5083121;28;21192;-86
2022/10/15 00:16:23;;;;;;;26.73;20.40;;;;;;;11.06;100.00;100770.75;5083614;28;20918;-85
2022/10/15 00:18:50;;;;;;;26.90;22.20;;;;;;;9.55;100.00;100555.56;5101252;27;20789;-82
2022/10/15 00:21:18;;;;;;;32.67;22.93;;;;;;;9.83;100.00;100624.28;5084486;28;20479;-83
2022/10/15 00:23:45;;;;;;;27.60;22.57;;;;;;;11.91;100.00;101002.16;5088243;28;20441;-84
2022/10/15 00:26:13;;;;;;;27.90;22.80;;;;;;;10.84;100.00;100756.66;5086968;28;20440;-84
2022/10/15 00:28:39;;;;;;;27.27;22.33;;;;;;;9.19;100.00;100508.41;5081620;28;20472;-83
2022/10/15 00:31:13;;;;;;;32.20;23.70;;;;;;;11.19;100.00;100838.91;5089159;28;20440;-83
2022/10/15 00:33:39;;;;;;;28.53;23.03;;;;;;;11.35;100.00;100870.78;5089209;28;20415;-86
2022/10/15 00:36:12;;;;;;;28.00;23.93;;;;;;;11.22;100.00;100819.72;5088321;28;20432;-84
2022/10/15 00:38:38;;;;;;;30.10;23.77;;;;;;;9.55;100.00;100605.63;5089429;28;20186;-84
2022/10/15 00:41:05;;;;;;;31.47;23.70;;;;;;;10.42;100.00;100740.84;5089742;28;20416;-84
2022/10/15 00:43:48;;;;;;;35.30;26.53;;;;;;;10.35;100.00;100746.16;5085117;28;20468;-86
2022/10/15 00:46:25;;;;;;;39.37;24.87;;;;;;;11.85;100.00;100940.31;5080552;28;20467;-83
2022/10/15 00:49:01;;;;;;;32.30;24.70;;;;;;;10.44;100.00;100712.78;5090367;28;20420;-85
2022/10/15 00:51:32;;;;;;;32.93;23.90;;;;;;;10.99;100.00;100798.59;5089054;28;20511;-85
2022/10/15 00:54:03;;;;;;;29.23;24.80;;;;;;;9.69;100.00;100604.63;5089401;28;20503;-85
2022/10/15 00:56:31;;;;;;;33.33;25.03;;;;;;;10.86;100.00;100794.84;5106531;28;20845;-85
2022/10/15 00:58:57;;;;;;;32.70;26.30;;;;;;;11.83;100.00;100937.84;5090070;28;20486;-84
2022/10/15 01:01:32;;;;;;;31.53;25.13;;;;;;;10.43;100.00;100716.50;5088097;28;20436;-85
2022/10/15 01:04:01;;;;;;;29.80;25.10;;;;;;;11.32;100.00;100849.72;5087410;28;20435;-85
2022/10/15 01:06:27;;;;;;;34.43;25.10;;;;;;;9.31;100.00;100521.25;5088678;28;20460;-84
2022/10/15 01:08:53;;;;;;;34.57;26.50;;;;;;;9.65;100.00;100611.41;5085058;28;20436;-84
2022/10/15 01:11:37;;;;;;;34.23;26.53;;;;;;;11.75;100.00;100933.47;5085890;28;20951;-85
2022/10/15 01:14:12;;;;;;;33.83;25.70;;;;;;;11.77;100.00;100928.75;5085399;28;20807;-85
2022/10/15 01:16:46;;;;;;;33.07;26.00;;;;;;;11.75;100.00;100929.97;5090563;28;20412;-86
2022/10/15 01:19:43;;;;;;;35.00;28.03;;;;;;;10.67;100.00;100749.19;5086218;28;20552;-84
2022/10/15 01:22:39;;;;;;;34.00;28.17;;;;;;;11.69;100.00;100926.25;5089059;28;20423;-85
2022/10/15 01:25:10;;;;;;;37.03;27.93;;;;;;;11.77;100.00;100922.50;5087591;28;20467;-84
2022/10/15 01:27:48;;;;;;;33.63;27.20;;;;;;;10.02;100.00;100653.03;5086903;28;20993;-85
2022/10/15 01:30:31;;;;;;;38.80;29.33;;;;;;;11.66;100.00;100909.69;5088051;28;20578;-85
2022/10/15 01:33:28;;;;;;;38.97;29.17;;;;;;;10.16;100.00;100686.06;5087721;28;20446;-83
2022/10/15 01:36:28;;;;;;;34.03;27.67;;;;;;;10.21;100.00;100698.84;5062838;28;20464;-85
2022/10/15 01:39:21;;;;;;;40.50;28.87;;;;;;;9.53;100.00;100592.41;5082407;28;21125;-84
2022/10/15 01:41:52;;;;;;;38.00;29.17;;;;;;;9.86;100.00;100629.22;5086963;28;20726;-83
2022/10/15 01:44:23;;;;;;;38.90;30.00;;;;;;;10.65;100.00;100762.81;5087874;28;20633;-86
2022/10/15 01:47:03;;;;;;;35.83;27.57;;;;;;;10.74;100.00;100779.56;5086169;28;20472;-83
2022/10/15 01:49:38;;;;;;;36.40;28.97;;;;;;;11.21;100.00;100853.81;5082466;28;20529;-82
2022/10/15 01:52:11;;;;;;;33.60;26.77;;;;;;;9.78;100.00;100597.25;5088870;28;20443;-85
2022/10/15 01:54:39;;;;;;;34.00;28.77;;;;;;;10.62;100.00;100747.13;5084037;28;20443;-86
2022/10/15 01:57:09;;;;;;;39.50;29.17;;;;;;;10.06;100.00;100658.81;5086555;28;20437;-82
2022/10/15 01:59:37;;;;;;;36.20;28.03;;;;;;;10.63;100.00;100740.72;5086139;28;20463;-85
2022/10/15 02:02:03;;;;;;;36.43;29.20;;;;;;;8.78;100.00;100445.03;5083025;28;20441;-84
2022/10/15 02:04:30;;;;;;;40.30;31.83;;;;;;;10.53;100.00;100694.66;5084392;28;20807;-84
2022/10/15 02:07:05;;;;;;;36.90;28.50;;;;;;;11.69;100.00;100887.78;5089199;28;20279;-84
2022/10/15 02:09:44;;;;;;;40.20;31.40;;;;;;;10.72;100.00;100727.94;5093847;28;20467;-82
2022/10/15 02:12:40;;;;;;;35.80;30.70;;;;;;;8.81;100.00;100412.53;5092870;28;20438;-84
2022/10/15 02:15:27;;;;;;;36.90;30.97;;;;;;;11.73;100.00;100887.16;5088866;28;20433;-86
2022/10/15 02:18:42;;;;;;;34.27;29.40;;;;;;;11.77;100.00;100923.38;5098305;28;20428;-85
2022/10/15 02:21:15;;;;;;;39.57;29.37;;;;;;;10.04;100.00;100632.22;5049913;28;20429;-84
2022/10/15 02:23:58;;;;;;;43.20;33.33;;;;;;;11.70;100.00;100879.50;5083590;28;20440;-84
2022/10/15 02:26:28;;;;;;;35.67;29.53;;;;;;;10.54;100.00;100681.06;5083047;28;20464;-83
2022/10/15 02:28:57;;;;;;;39.67;31.07;;;;;;;11.71;100.00;100880.34;5081131;28;20915;-82
2022/10/15 02:31:25;;;;;;;34.30;28.50;;;;;;;9.53;100.00;100538.88;5084509;28;20974;-85
2022/10/15 02:33:54;;;;;;;36.53;27.70;;;;;;;11.14;100.00;100809.16;5084327;28;20459;-86
2022/10/15 02:36:20;;;;;;;37.50;29.77;;;;;;;10.15;100.00;100650.41;5080437;28;20455;-85
2022/10/15 02:38:48;;;;;;;45.10;28.20;;;;;;;10.66;100.00;100743.00;5083323;28;20461;-83
2022/10/15 02:41:14;;;;;;;39.80;29.83;;;;;;;10.89;100.00;100734.59;5072412;28;20931;-85
2022/10/15 02:43:40;;;;;;;35.40;28.27;;;;;;;9.52;100.00;100513.13;5080731;28;20488;-85
2022/10/15 02:46:08;;;;;;;38.00;31.77;;;;;;;10.61;100.00;100697.16;5081602;28;21091;-83
2022/10/15 02:48:33;;;;;;;35.10;27.67;;;;;;;9.58;100.00;100512.31;5083375;28;20433;-84
2022/10/15 02:50:59;;;;;;;36.37;28.83;;;;;;;9.71;100.00;100557.88;5083844;28;20462;-78
2022/10/15 02:53:24;;;;;;;37.20;29.67;;;;;;;10.35;100.00;100641.63;5085251;28;20185;-82
2022/10/15 02:55:50;;;;;;;37.13;29.17;;;;;;;9.93;100.00;100571.16;5084303;28;20236;-83
2022/10/15 02:58:15;;;;;;;43.90;31.80;;;;;;;10.29;100.00;100634.38;5083763;28;20657;-83
2022/10/15 03:00:41;;;;;;;40.37;31.37;;;;;;;10.98;100.00;100765.56;5083697;28;20241;-79
2022/10/15 03:03:06;;;;;;;39.13;30.23;;;;;;;10.77;100.00;100729.00;5085307;22;20234;-67
2022/10/15 03:05:33;;;;;;;37.40;28.93;;;;;;;11.01;100.00;100750.94;5058138;28;20267;-68
2022/10/15 03:07:59;;;;;;;35.00;29.20;;;;;;;11.64;100.00;100863.41;5046835;28;20207;-68
2022/10/15 03:10:25;;;;;;;38.33;29.83;;;;;;;11.30;100.00;100819.53;5065662;28;20449;-68
2022/10/15 03:12:50;;;;;;;43.67;30.47;;;;;;;11.53;100.00;100848.69;5059690;28;20203;-67
2022/10/15 03:15:15;;;;;;;40.30;30.20;;;;;;;11.53;100.00;100857.59;5064143;28;20199;-68
2022/10/15 03:17:41;;;;;;;35.50;30.03;;;;;;;11.54;100.00;100858.41;5066938;28;20186;-67
2022/10/15 03:20:06;;;;;;;37.87;29.57;;;;;;;11.40;100.00;100833.41;5062470;28;20678;-68
2022/10/15 03:22:32;;;;;;;40.37;34.03;;;;;;;11.40;100.00;100846.84;5063330;28;20191;-68
2022/10/15 03:24:57;;;;;;;44.33;33.20;;;;;;;11.33;100.00;100837.94;5065011;28;20186;-68
2022/10/15 03:27:23;;;;;;;40.33;31.30;;;;;;;11.49;100.00;100855.53;5062023;28;20213;-68
2022/10/15 03:29:49;;;;;;;39.87;30.73;;;;;;;11.53;100.00;100854.91;5061693;28;20190;-68
2022/10/15 03:32:14;;;;;;;42.57;32.13;;;;;;;11.50;100.00;100846.44;5062895;28;20445;-68
2022/10/15 03:34:40;;;;;;;44.40;33.87;;;;;;;11.46;100.00;100848.69;5065589;28;20588;-68
2022/10/15 03:37:05;;;;;;;38.93;31.93;;;;;;;11.50;100.00;100855.31;5064018;28;20697;-68
2022/10/15 03:39:30;;;;;;;40.27;33.40;;;;;;;11.38;100.00;100831.97;5064518;28;20203;-68
2022/10/15 03:41:56;;;;;;;40.13;31.63;;;;;;;11.09;100.00;100794.50;5068510;28;20664;-68
2022/10/15 03:44:21;;;;;;;43.93;34.47;;;;;;;11.06;100.00;100791.41;5066145;28;20288;-68
2022/10/15 03:46:46;;;;;;;44.40;33.20;;;;;;;11.17;100.00;100795.38;5068702;28;20677;-68
2022/10/15 03:49:12;;;;;;;43.07;33.47;;;;;;;11.50;100.00;100851.81;5070386;28;20221;-68
2022/10/15 03:51:37;;;;;;;52.17;34.97;;;;;;;11.42;100.00;100852.81;5066657;28;20228;-68
2022/10/15 03:54:03;;;;;;;45.07;33.70;;;;;;;11.36;100.00;100836.69;5066447;28;20683;-68
2022/10/15 03:56:28;;;;;;;43.40;35.20;;;;;;;11.24;100.00;100820.34;5068579;28;20174;-68
2022/10/15 03:58:53;;;;;;;41.57;33.40;;;;;;;11.11;100.00;100798.84;5064018;28;20205;-68
2022/10/15 04:01:19;;;;;;;43.17;33.70;;;;;;;11.37;100.00;100838.34;5066061;28;20233;-68
2022/10/15 04:03:44;;;;;;;43.63;32.70;;;;;;;11.45;100.00;100851.56;5068371;28;20297;-68
2022/10/15 04:06:10;;;;;;;40.83;32.67;;;;;;;11.28;100.00;100822.44;5070099;28;20948;-68
2022/10/15 04:08:35;;;;;;;47.60;34.60;;;;;;;11.35;100.00;100843.94;5063869;28;20183;-67
2022/10/15 04:11:01;;;;;;;46.83;33.33;;;;;;;11.26;100.00;100823.69;5068514;28;20610;-68
2022/10/15 04:13:27;;;;;;;45.10;33.33;;;;;;;11.39;100.00;100845.16;5070377;28;20246;-68
2022/10/15 04:15:53;;;;;;;49.40;34.30;;;;;;;11.44;100.00;100858.81;5066174;28;20195;-68
2022/10/15 04:18:20;;;;;;;46.73;34.40;;;;;;;11.11;100.00;100809.56;5066512;28;20449;-68
2022/10/15 04:20:48;;;;;;;46.43;33.30;;;;;;;10.82;100.00;100763.28;5060064;28;20230;-68
2022/10/15 04:23:15;;;;;;;45.13;34.07;;;;;;;11.36;100.00;100850.94;5055509;28;20456;-68
2022/10/15 04:25:41;;;;;;;46.10;31.40;;;;;;;11.42;100.00;100852.81;5068682;28;20474;-68
2022/10/15 04:28:07;;;;;;;42.43;31.73;;;;;;;10.93;100.00;100767.22;5065446;28;20468;-68
2022/10/15 04:30:32;;;;;;;44.90;33.80;;;;;;;11.31;100.00;100848.88;5064034;28;20974;-68
2022/10/15 04:32:57;;;;;;;43.03;32.57;;;;;;;11.37;100.00;100852.63;5069184;28;20686;-68
2022/10/15 04:35:23;;;;;;;45.30;34.23;;;;;;;11.36;100.00;100860.88;5061532;28;20190;-68
2022/10/15 04:37:49;;;;;;;48.17;36.10;;;;;;;11.36;100.00;100861.69;5070042;28;20196;-68
2022/10/15 04:40:15;;;;;;;47.30;32.73;;;;;;;11.23;100.00;100841.00;5068374;28;20186;-68
2022/10/15 04:42:40;;;;;;;48.70;35.10;;;;;;;11.39;100.00;100874.69;5072046;28;20190;-68
2022/10/15 04:45:06;;;;;;;44.07;34.33;;;;;;;11.13;100.00;100821.78;5067454;28;20860;-68
2022/10/15 04:47:32;;;;;;;45.53;33.90;;;;;;;11.13;100.00;100824.44;5069346;28;20581;-68
2022/10/15 04:49:57;;;;;;;41.80;32.63;;;;;;;11.45;100.00;100865.00;5068585;28;20532;-68
2022/10/15 04:52:23;;;;;;;42.67;33.57;;;;;;;11.42;100.00;100860.88;5072758;28;20218;-68
2022/10/15 04:54:48;;;;;;;44.30;32.20;;;;;;;11.42;100.00;100866.25;5070510;28;20223;-68
2022/10/15 04:57:14;;;;;;;44.97;34.70;;;;;;;11.18;100.00;100815.81;5071041;28;20651;-69
2022/10/15 04:59:39;;;;;;;49.70;34.67;;;;;;;11.30;100.00;100859.81;5065388;28;20179;-68
2022/10/15 05:02:05;;;;;;;40.83;32.50;;;;;;;11.15;100.00;100819.72;5052068;28;20254;-69
2022/10/15 05:04:30;;;;;;;47.30;32.23;;;;;;;10.93;100.00;100775.25;5073661;28;20226;-69
2022/10/15 05:06:56;;;;;;;46.87;32.70;;;;;;;10.94;100.00;100783.13;5064683;28;20218;-69
2022/10/15 05:09:21;;;;;;;42.93;31.43;;;;;;;11.46;100.00;100864.00;5074271;28;20183;-68
2022/10/15 05:11:46;;;;;;;49.13;34.03;;;;;;;11.43;100.00;100867.91;5073104;28;20188;-69
2022/10/15 05:14:12;;;;;;;42.17;30.97;;;;;;;11.21;100.00;100828.81;5068690;28;20204;-69
2022/10/15 05:16:37;;;;;;;45.83;31.43;;;;;;;11.44;100.00;100868.72;5069711;28;20650;-69
2022/10/15 05:19:05;;;;;;;45.53;34.57;;;;;;;11.39;100.00;100869.34;5072011;28;20210;-69
2022/10/15 05:21:31;;;;;;;40.93;31.70;;;;;;;11.42;100.00;100868.09;5066583;28;20234;-69
2022/10/15 05:23:57;;;;;;;45.03;32.87;;;;;;;11.40;100.00;100864.78;5071158;28;20448;-69
2022/10/15 05:26:25;;;;;;;44.87;33.90;;;;;;;11.46;100.00;100867.50;5072034;28;20433;-69
2022/10/15 05:28:51;;;;;;;44.97;32.10;;;;;;;11.40;100.00;100876.38;5063722;28;20840;-69
2022/10/15 05:31:19;;;;;;;45.23;30.87;;;;;;;11.06;100.00;100808.34;5060164;28;20498;-69
2022/10/15 05:33:48;;;;;;;44.43;31.40;;;;;;;11.47;100.00;100863.78;5067662;28;20992;-69
2022/10/15 05:36:18;;;;;;;43.53;32.03;;;;;;;10.87;100.00;100779.59;5063178;28;20436;-69
2022/10/15 05:38:45;;;;;;;47.87;31.97;;;;;;;11.35;100.00;100868.09;5067282;28;20855;-69
2022/10/15 05:41:11;;;;;;;49.67;33.33;;;;;;;11.37;100.00;100857.13;5065931;28;21028;-69
2022/10/15 05:43:36;;;;;;;49.87;35.53;;;;;;;11.37;100.00;100863.34;5063089;28;20487;-69
2022/10/15 05:46:02;;;;;;;47.60;31.60;;;;;;;11.37;100.00;100858.00;5063617;28;20690;-69
2022/10/15 05:48:27;;;;;;;46.10;32.70;;;;;;;11.41;100.00;100855.72;5066987;28;20238;-69
2022/10/15 05:50:53;;;;;;;40.80;30.10;;;;;;;11.32;100.00;100852.38;5064708;28;20553;-69
2022/10/15 05:53:18;;;;;;;48.03;30.60;;;;;;;11.39;100.00;100863.13;5066669;28;20221;-69
2022/10/15 05:55:44;;;;;;;44.73;31.80;;;;;;;10.99;100.00;100815.56;5063504;28;20190;-69
2022/10/15 05:58:10;;;;;;;45.83;31.80;;;;;;;11.21;100.00;100845.75;5066585;28;20191;-69
2022/10/15 06:00:35;;;;;;;44.73;32.30;;;;;;;11.46;100.00;100864.00;5066117;28;20234;-69
2022/10/15 06:03:01;;;;;;;45.53;31.20;;;;;;;11.29;100.00;100845.56;5063650;28;20682;-69
2022/10/15 06:05:26;;;;;;;45.30;33.23;;;;;;;11.44;100.00;100863.38;5067081;28;20707;-69
2022/10/15 06:07:52;;;;;;;49.00;33.07;;;;;;;11.40;100.00;100864.78;5062915;28;20264;-69
2022/10/15 06:10:17;;;;;;;46.67;31.90;;;;;;;11.18;100.00;100839.97;5064204;28;20729;-69
2022/10/15 06:12:48;;;;;;;46.60;32.53;;;;;;;11.36;100.00;100876.97;5069633;28;20190;-69
2022/10/15 06:15:14;;;;;;;40.83;31.93;;;;;;;11.47;100.00;100871.84;5059405;28;20255;-69
2022/10/15 06:17:39;;;;;;;45.00;31.73;;;;;;;11.38;100.00;100880.28;5060546;28;20437;-69
2022/10/15 06:20:05;;;;;;;45.77;30.57;;;;;;;11.47;100.00;100869.16;5057375;28;20285;-68
2022/10/15 06:22:30;;;;;;;48.50;31.37;;;;;;;11.39;100.00;100873.88;5050890;28;20219;-68
2022/10/15 06:24:56;;;;;;;41.50;30.00;;;;;;;11.47;100.00;100866.47;5058016;28;20444;-69
2022/10/15 06:27:21;;;;;;;43.90;30.47;;;;;;;11.36;100.00;100877.78;5052417;28;20253;-68
2022/10/15 06:29:46;;;;;;;52.90;32.50;;;;;;;10.72;100.00;100777.06;5053018;28;20222;-68
2022/10/15 06:32:12;;;;;;;47.00;31.60;;;;;;;11.28;100.00;100856.50;5064480;28;20186;-68
2022/10/15 06:34:37;;;;;;;46.03;31.93;;;;;;;11.04;100.00;100826.50;5054523;28;20682;-68
2022/10/15 06:37:03;;;;;;;49.10;33.33;;;;;;;11.27;100.00;100858.34;5062587;28;20270;-68
2022/10/15 06:39:28;;;;;;;48.23;35.77;;;;;;;11.18;100.00;100830.06;5056233;28;20289;-68
2022/10/15 06:41:53;;;;;;;41.00;30.60;;;;;;;11.48;100.00;100876.16;5060953;28;20187;-68
2022/10/15 06:44:19;;;;;;;45.10;32.87;;;;;;;11.26;100.00;100837.09;5049978;28;20675;-68
2022/10/15 06:46:44;;;;;;;55.03;32.50;;;;;;;11.22;100.00;100838.50;5054008;28;20294;-69
2022/10/15 06:49:09;;;;;;;53.50;33.60;;;;;;;11.46;100.00;100872.88;5059210;28;20186;-68
2022/10/15 06:51:36;;;;;;;45.53;32.00;;;;;;;11.36;100.00;100859.00;5063583;28;20183;-68
2022/10/15 06:54:02;;;;;;;43.50;30.40;;;;;;;11.35;100.00;100846.63;5065360;28;20639;-68
2022/10/15 06:56:27;;;;;;;49.00;32.30;;;;;;;11.50;100.00;100881.34;5050866;28;20520;-68
2022/10/15 06:58:53;;;;;;;46.43;33.07;;;;;;;11.37;100.00;100860.66;5066618;28;20520;-69
2022/10/15 07:01:18;;;;;;;47.57;32.80;;;;;;;11.52;100.00;100895.41;5058818;28;20186;-69
2022/10/15 07:03:44;;;;;;;42.60;30.63;;;;;;;11.59;100.00;100888.19;5061015;28;20210;-69
2022/10/15 07:06:09;;;;;;;42.47;31.63;;;;;;;11.48;100.00;100870.78;5060835;28;20615;-68
2022/10/15 07:08:35;;;;;;;46.30;31.63;;;;;;;11.50;100.00;100892.91;5066039;28;20200;-68
2022/10/15 07:11:02;;;;;;;40.27;32.73;;;;;;;11.11;100.00;100818.47;5062491;28;20194;-69
2022/10/15 07:13:28;;;;;;;43.73;31.90;;;;;;;11.32;100.00;100847.03;5063774;28;20461;-68
2022/10/15 07:15:54;;;;;;;44.90;32.27;;;;;;;11.10;100.00;100808.75;5063661;28;20503;-68
2022/10/15 07:18:20;;;;;;;50.33;33.83;;;;;;;10.92;100.00;100779.81;5065526;28;20437;-69
2022/10/15 07:20:45;;;;;;;52.60;34.10;;;;;;;11.58;100.00;100883.03;5055504;28;20486;-69
2022/10/15 07:23:11;;;;;;;50.20;34.60;;;;;;;11.26;100.00;100815.63;5058812;28;20295;-68
2022/10/15 07:25:37;;;;;;;46.67;32.30;;;;;;;11.67;100.00;100871.03;5055556;28;20611;-68
2022/10/15 07:28:03;;;;;;;45.47;33.50;;;;;;;10.92;100.00;100752.16;5038112;28;20323;-68
2022/10/15 07:30:28;;;;;;;49.10;35.33;;;;;;;11.36;100.00;100821.41;5053875;28;21014;-69
2022/10/15 07:32:58;;;;;;;44.53;32.90;;;;;;;11.69;100.00;100867.13;5068622;28;20706;-69
2022/10/15 07:35:26;;;;;;;49.00;33.40;;;;;;;11.64;100.00;100874.97;5057128;28;20186;-68
2022/10/15 07:37:52;;;;;;;46.03;33.83;;;;;;;11.06;100.00;100770.75;5040218;28;20524;-69
2022/10/15 07:40:18;;;;;;;45.20;33.30;;;;;;;11.57;100.00;100863.41;5054148;28;21094;-68
2022/10/15 07:42:43;;;;;;;44.70;32.17;;;;;;;11.15;100.00;100792.88;5056319;28;20346;-68
2022/10/15 07:45:09;;;;;;;49.43;34.47;;;;;;;11.73;100.00;100875.59;5049123;28;20452;-68
2022/10/15 07:47:35;;;;;;;50.47;35.43;;;;;;;11.77;100.00;100880.38;5062549;28;20215;-69
2022/10/15 07:50:00;;;;;;;48.70;33.70;;;;;;;11.32;100.00;100785.25;5052417;28;20515;-69
2022/10/15 07:52:26;;;;;;;49.83;35.13;;;;;;;11.43;100.00;100808.00;5075181;28;20643;-68
2022/10/15 07:54:51;;;;;;;50.00;33.73;;;;;;;11.51;100.00;100830.13;5071911;28;20225;-68
2022/10/15 07:57:17;;;;;;;50.00;35.93;;;;;;;11.83;100.00;100865.28;5072793;28;20247;-69
2022/10/15 07:59:42;;;;;;;49.23;33.83;;;;;;;11.20;100.00;100760.88;5073013;28;20309;-69
2022/10/15 08:02:15;;;;;;;51.20;34.53;;;;;;;11.94;100.00;100875.41;5072988;28;20187;-68
2022/10/15 08:04:41;;;;;;;47.50;33.93;;;;;;;12.04;100.00;100868.81;5052927;28;20301;-69
2022/10/15 08:07:06;;;;;;;49.70;34.87;;;;;;;12.02;100.00;100865.50;5073248;28;20587;-69
2022/10/15 08:09:31;;;;;;;45.67;33.40;;;;;;;11.73;100.00;100846.03;5074684;28;20218;-68
2022/10/15 08:11:57;;;;;;;45.07;33.63;;;;;;;11.83;100.00;100829.50;5073549;28;20187;-69
2022/10/15 08:14:22;;;;;;;51.30;34.23;;;;;;;11.98;100.00;100873.16;5072966;28;20301;-68
2022/10/15 08:16:48;;;;;;;43.90;32.50;;;;;;;12.09;100.00;100880.59;5072534;28;20235;-69
2022/10/15 08:19:16;;;;;;;48.53;32.93;;;;;;;12.18;100.00;100876.66;5074845;28;20218;-68
2022/10/15 08:21:42;;;;;;;48.23;34.13;;;;;;;12.27;100.00;100877.28;5073647;28;20187;-68
2022/10/15 08:24:07;;;;;;;47.10;32.53;;;;;;;11.78;100.00;100789.81;5071370;28;20453;-69
2022/10/15 08:26:33;;;;;;;53.13;35.60;;;;;;;11.60;100.00;100768.97;5073758;28;20463;-69
2022/10/15 08:28:59;;;;;;;46.50;31.83;;;;;;;12.46;100.00;100878.25;5070910;28;20221;-69
2022/10/15 08:31:25;;;;;;;52.20;35.67;;;;;;;11.81;100.00;100789.41;5057634;28;20179;-69
2022/10/15 08:33:50;;;;;;;50.40;34.10;;;;;;;12.56;100.00;100865.22;5073775;28;20453;-69
2022/10/15 08:36:15;;;;;;;45.27;32.23;;;;;;;12.47;100.00;100842.28;5071580;28;20193;-69
2022/10/15 08:38:41;;;;;;;42.33;30.87;;;;;;;12.25;100.00;100781.72;5073802;28;20182;-69
2022/10/15 08:41:27;;;;;;;45.37;32.33;;;;;;;12.47;100.00;100836.91;5071546;28;20246;-69
2022/10/15 08:43:53;;;;;;;42.43;31.50;;;;;;;12.61;100.00;100826.88;5073091;28;20207;-69
2022/10/15 08:46:44;;;;;;;46.67;31.27;;;;;;;12.92;100.00;100831.53;5073972;28;20457;-70
2022/10/15 08:49:25;;;;;;;43.40;31.70;;;;;;;13.02;100.00;100855.31;5063693;28;20651;-69
2022/10/15 08:51:57;;;;;;;41.73;30.93;;;;;;;12.95;100.00;100870.66;5072358;28;20429;-69
2022/10/15 08:54:23;;;;;;;42.60;30.60;;;;;;;12.54;100.00;100785.75;5074132;28;20453;-69
2022/10/15 08:57:03;;;;;;;40.97;29.00;;;;;;;12.79;100.00;100796.63;5073600;28;20909;-69
2022/10/15 08:59:39;;;;;;;46.03;29.93;;;;;;;13.34;100.00;100861.59;5072049;28;20315;-69
2022/10/15 09:02:25;;;;;;;38.27;27.67;;;;;;;12.55;100.00;100738.97;5073547;28;20418;-69
2022/10/15 09:05:14;;;;;;;44.13;31.53;;;;;;;12.55;100.00;100738.97;5122385;22;20585;-76
2022/10/15 09:07:46;;;;;;;39.60;30.33;;;;;;;10.94;100.00;100482.56;5098295;28;20481;-76
2022/10/15 09:10:30;;;;;;;38.27;27.80;;;;;;;13.44;100.00;100845.78;5117451;28;20415;-76
2022/10/15 09:13:13;;;;;;;44.30;30.90;;;;;;;10.95;100.00;100486.06;5120082;28;20523;-76
2022/10/15 09:16:03;;;;;;;35.07;27.30;;;;;;;12.42;100.00;100723.72;5104210;28;20878;-76
2022/10/15 09:18:32;;;;;;;36.10;27.87;;;;;;;11.20;100.00;100481.69;5118429;28;20429;-76
2022/10/15 09:21:03;;;;;;;36.93;27.80;;;;;;;11.85;100.00;100589.09;5103352;28;20815;-76
2022/10/15 09:23:32;;;;;;;37.93;29.13;;;;;;;12.50;100.00;100695.72;5120763;28;20443;-76
2022/10/15 09:26:07;;;;;;;37.33;29.23;;;;;;;13.48;100.00;100843.47;5114174;28;20448;-76
2022/10/15 09:28:49;;;;;;;38.50;28.93;;;;;;;12.77;100.00;100761.00;5090907;28;20467;-76
2022/10/15 09:31:20;;;;;;;35.00;28.27;;;;;;;11.14;100.00;100444.09;5107416;28;20572;-76
2022/10/15 09:33:53;;;;;;;34.17;27.73;;;;;;;11.51;100.00;100548.09;5106939;27;20551;-77
2022/10/15 09:36:30;;;;;;;36.93;27.70;;;;;;;13.70;100.00;100833.97;5106932;28;20576;-76
2022/10/15 09:39:35;;;;;;;31.20;25.17;;;;;;;11.74;100.00;100552.97;5090125;28;21007;-76
2022/10/15 09:42:29;;;;;;;38.70;28.37;;;;;;;13.90;100.00;100846.47;5102719;28;20462;-76
2022/10/15 09:44:59;;;;;;;34.90;24.50;;;;;;;13.90;100.00;100850.00;5085635;28;20487;-76
2022/10/15 09:47:33;;;;;;;38.20;25.57;;;;;;;13.15;100.00;100700.91;5105513;28;20952;-76
2022/10/15 09:50:00;;;;;;;32.50;26.20;;;;;;;12.58;100.00;100609.38;5104609;28;20915;-76
2022/10/15 09:52:38;;;;;;;29.27;24.37;;;;;;;11.90;100.00;100481.78;5091010;28;20807;-75
2022/10/15 09:55:25;;;;;;;29.27;25.03;;;;;;;14.10;100.00;100798.56;5103351;28;20451;-76
2022/10/15 09:57:54;;;;;;;31.47;24.43;;;;;;;13.02;100.00;100642.63;5106857;28;20411;-76
2022/10/15 10:00:20;;;;;;;32.27;24.20;;;;;;;11.94;100.00;100437.31;5090250;28;20423;-77
2022/10/15 10:03:06;;;;;;;30.30;24.63;;;;;;;13.57;100.00;100712.81;5089275;28;20423;-76
2022/10/15 10:05:35;;;;;;;28.90;24.37;;;;;;;12.19;100.00;100440.03;5106739;28;20451;-76
2022/10/15 10:08:20;;;;;;;32.47;25.40;;;;;;;13.33;100.00;100647.13;5086014;28;20521;-76
2022/10/15 10:10:54;;;;;;;28.80;23.57;;;;;;;12.19;100.00;100447.25;5089840;28;20435;-76
2022/10/15 10:13:25;;;;;;;29.60;23.07;;;;;;;13.05;100.00;100564.91;5090048;28;20952;-76
2022/10/15 10:15:53;;;;;;;28.10;23.70;;;;;;;13.20;100.00;100585.28;5105403;28;20512;-76
2022/10/15 10:18:23;;;;;;;25.70;22.33;;;;;;;12.78;100.00;100548.16;5092044;28;20416;-76
2022/10/15 10:20:58;;;;;;;29.80;23.03;;;;;;;12.74;100.00;100554.22;5107802;28;20435;-76
2022/10/15 10:23:30;;;;;;;28.67;24.70;;;;;;;14.16;100.00;100759.09;5091362;28;20415;-76
2022/10/15 10:25:59;;;;;;;32.33;26.40;;;;;;;12.05;100.00;100446.53;5107241;28;20522;-75
2022/10/15 10:28:32;;;;;;;31.40;28.10;;;;;;;12.12;100.00;100516.38;5107457;28;20474;-76
2022/10/15 10:31:25;;;;;;;30.47;25.63;;;;;;;11.38;100.00;100362.84;5091736;28;20426;-76
2022/10/15 10:33:53;;;;;;;30.43;26.50;;;;;;;11.64;100.00;100412.88;5086212;28;20474;-76
2022/10/15 10:36:35;;;;;;;38.83;29.00;;;;;;;13.69;100.00;100780.31;5090738;28;20518;-76
2022/10/15 10:39:13;;;;;;;32.20;26.73;;;;;;;13.70;100.00;100774.69;5087597;28;20461;-76
2022/10/15 10:42:00;;;;;;;30.33;25.50;;;;;;;13.72;100.00;100774.47;5090856;28;20835;-76
2022/10/15 10:44:39;;;;;;;34.00;26.90;;;;;;;13.62;100.00;100779.53;5108379;28;20497;-76
2022/10/15 10:47:18;;;;;;;32.80;26.10;;;;;;;12.06;100.00;100523.44;5109070;28;20458;-76
2022/10/15 10:49:50;;;;;;;36.43;30.07;;;;;;;12.01;100.00;100565.47;5108697;28;20419;-76
2022/10/15 10:52:29;;;;;;;37.90;29.27;;;;;;;11.91;100.00;100536.34;5108808;28;20416;-76
2022/10/15 10:55:17;;;;;;;40.63;31.53;;;;;;;13.50;100.00;100784.81;5109329;28;20440;-76
2022/10/15 10:57:53;;;;;;;42.87;31.00;;;;;;;12.47;100.00;100658.50;5089054;28;20560;-76
2022/10/15 11:00:38;;;;;;;35.80;29.43;;;;;;;11.00;100.00;100401.22;5090953;28;21007;-76
2022/10/15 11:03:05;;;;;;;38.13;30.37;;;;;;;12.37;100.00;100659.78;5088723;28;20927;-76
2022/10/15 11:05:38;;;;;;;37.73;29.50;;;;;;;12.37;100.00;100619.44;5084025;28;20469;-76
2022/10/15 11:08:19;;;;;;;38.83;29.00;;;;;;;11.12;100.00;100400.56;5108208;28;20459;-76
2022/10/15 11:11:02;;;;;;;34.53;28.20;;;;;;;11.28;100.00;100453.75;5108938;28;20412;-76
2022/10/15 11:13:56;;;;;;;35.67;25.33;;;;;;;13.38;100.00;100765.81;5106250;28;20440;-76
2022/10/15 11:16:47;;;;;;;34.23;24.77;;;;;;;11.00;100.00;100373.56;5083786;28;20442;-76